sensor_id;sensor_type;location;lat;lon;timestamp;temperature;humidity
43987;DHT22;29650;47.378;8.300;2023-02-18T00:00:07;7.40;99.90
43987;DHT22;29650;47.378;8.300;2023-02-18T00:02:34;7.50;99.90
43987;DHT22;29650;47.378;8.300;2023-02-18T00:05:01;7.50;99.90
43987;DHT22;29650;47.378;8.300;2023-02-18T00:07:32;7.50;99.90
43987;DHT22;29650;47.378;8.300;2023-02-18T00:10:00;7.60;99.90
43987;DHT22;29650;47.378;8.300;2023-02-18T00:12:29;7.60;99.90
43987;DHT22;29650;47.378;8.300;2023-02-18T00:14:56;7.70;99.90
43987;DHT22;29650;47.378;8.300;2023-02-18T00:17:24;7.70;99.90
43987;DHT22;29650;47.378;8.300;2023-02-18T00:19:51;7.60;99.90
43987;DHT22;29650;47.378;8.300;2023-02-18T00:22:18;7.60;99.90
43987;DHT22;29650;47.378;8.300;2023-02-18T00:24:45;7.50;99.90
43987;DHT22;29650;47.378;8.300;2023-02-18T00:27:12;7.50;99.90
43987;DHT22;29650;47.378;8.300;2023-02-18T00:29:40;7.50;99.90
43987;DHT22;29650;47.378;8.300;2023-02-18T00:32:07;7.40;99.90
43987;DHT22;29650;47.378;8.300;2023-02-18T00:34:34;7.40;99.90
43987;DHT22;29650;47.378;8.300;2023-02-18T00:37:01;7.20;99.90
43987;DHT22;29650;47.378;8.300;2023-02-18T00:39:28;7.20;99.90
43987;DHT22;29650;47.378;8.300;2023-02-18T00:41:55;7.30;99.90
43987;DHT22;29650;47.378;8.300;2023-02-18T00:44:22;7.30;99.90
43987;DHT22;29650;47.378;8.300;2023-02-18T00:46:50;7.30;99.90
43987;DHT22;29650;47.378;8.300;2023-02-18T00:49:18;7.30;99.90
43987;DHT22;29650;47.378;8.300;2023-02-18T00:51:45;7.40;99.90
43987;DHT22;29650;47.378;8.300;2023-02-18T00:54:12;7.40;99.90
43987;DHT22;29650;47.378;8.300;2023-02-18T00:56:39;7.40;99.90
43987;DHT22;29650;47.378;8.300;2023-02-18T00:59:06;7.30;99.90
43987;DHT22;29650;47.378;8.300;2023-02-18T01:01:33;7.20;99.90
43987;DHT22;29650;47.378;8.300;2023-02-18T01:04:04;7.30;99.90
43987;DHT22;29650;47.378;8.300;2023-02-18T01:06:34;7.30;99.90
43987;DHT22;29650;47.378;8.300;2023-02-18T01:09:01;7.10;99.90
43987;DHT22;29650;47.378;8.300;2023-02-18T01:11:28;6.90;99.90
43987;DHT22;29650;47.378;8.300;2023-02-18T01:13:55;6.70;99.90
43987;DHT22;29650;47.378;8.300;2023-02-18T01:16:23;6.60;99.90
43987;DHT22;29650;47.378;8.300;2023-02-18T01:18:50;6.50;99.90
43987;DHT22;29650;47.378;8.300;2023-02-18T01:21:21;6.60;99.90
43987;DHT22;29650;47.378;8.300;2023-02-18T01:23:48;6.70;99.90
43987;DHT22;29650;47.378;8.300;2023-02-18T01:26:15;6.90;99.90
43987;DHT22;29650;47.378;8.300;2023-02-18T01:28:43;7.00;99.90
43987;DHT22;29650;47.378;8.300;2023-02-18T01:31:12;7.00;99.90
43987;DHT22;29650;47.378;8.300;2023-02-18T01:33:39;7.10;99.90
43987;DHT22;29650;47.378;8.300;2023-02-18T01:36:07;7.30;99.90
43987;DHT22;29650;47.378;8.300;2023-02-18T01:38:36;7.30;99.90
43987;DHT22;29650;47.378;8.300;2023-02-18T01:41:03;7.40;99.90
43987;DHT22;29650;47.378;8.300;2023-02-18T01:43:31;7.40;99.90
43987;DHT22;29650;47.378;8.300;2023-02-18T01:46:09;7.30;99.90
43987;DHT22;29650;47.378;8.300;2023-02-18T01:48:41;7.00;99.90
43987;DHT22;29650;47.378;8.300;2023-02-18T01:51:12;6.80;99.90
43987;DHT22;29650;47.378;8.300;2023-02-18T01:53:47;6.60;99.90
43987;DHT22;29650;47.378;8.300;2023-02-18T01:56:22;6.60;99.90
43987;DHT22;29650;47.378;8.300;2023-02-18T01:58:54;6.70;99.90
43987;DHT22;29650;47.378;8.300;2023-02-18T02:01:23;6.70;99.90
43987;DHT22;29650;47.378;8.300;2023-02-18T02:03:58;6.60;99.90
43987;DHT22;29650;47.378;8.300;2023-02-18T02:06:26;6.70;99.90
43987;DHT22;29650;47.378;8.300;2023-02-18T02:08:56;6.70;99.90
43987;DHT22;29650;47.378;8.300;2023-02-18T02:14:27;6.70;99.90
43987;DHT22;29650;47.378;8.300;2023-02-18T02:17:02;6.60;99.90
43987;DHT22;29650;47.378;8.300;2023-02-18T02:20:02;6.70;99.90
43987;DHT22;29650;47.378;8.300;2023-02-18T02:31:37;6.90;99.90
43987;DHT22;29650;47.378;8.300;2023-02-18T02:34:33;6.90;99.90
43987;DHT22;29650;47.378;8.300;2023-02-18T02:37:08;7.00;99.90
43987;DHT22;29650;47.378;8.300;2023-02-18T02:39:42;7.00;99.90
43987;DHT22;29650;47.378;8.300;2023-02-18T02:42:20;7.00;99.90
43987;DHT22;29650;47.378;8.300;2023-02-18T02:44:54;6.80;99.90
43987;DHT22;29650;47.378;8.300;2023-02-18T02:47:27;6.80;99.90
43987;DHT22;29650;47.378;8.300;2023-02-18T02:50:02;6.70;99.90
43987;DHT22;29650;47.378;8.300;2023-02-18T02:52:32;6.70;99.90
43987;DHT22;29650;47.378;8.300;2023-02-18T02:55:04;6.70;99.90
43987;DHT22;29650;47.378;8.300;2023-02-18T02:57:47;6.70;99.90
43987;DHT22;29650;47.378;8.300;2023-02-18T03:00:19;6.60;99.90
43987;DHT22;29650;47.378;8.300;2023-02-18T03:06:07;6.70;99.90
43987;DHT22;29650;47.378;8.300;2023-02-18T03:08:40;6.80;99.90
43987;DHT22;29650;47.378;8.300;2023-02-18T03:11:12;6.70;99.90
43987;DHT22;29650;47.378;8.300;2023-02-18T03:13:52;6.70;99.90
43987;DHT22;29650;47.378;8.300;2023-02-18T03:16:26;6.70;99.90
43987;DHT22;29650;47.378;8.300;2023-02-18T03:19:02;6.60;99.90
43987;DHT22;29650;47.378;8.300;2023-02-18T03:21:36;6.70;99.90
43987;DHT22;29650;47.378;8.300;2023-02-18T03:24:11;6.70;99.90
43987;DHT22;29650;47.378;8.300;2023-02-18T03:26:45;6.90;99.90
43987;DHT22;29650;47.378;8.300;2023-02-18T03:29:15;6.90;99.90
43987;DHT22;29650;47.378;8.300;2023-02-18T03:31:46;7.00;99.90
43987;DHT22;29650;47.378;8.300;2023-02-18T03:34:16;7.00;99.90
43987;DHT22;29650;47.378;8.300;2023-02-18T03:36:48;7.00;99.90
43987;DHT22;29650;47.378;8.300;2023-02-18T03:39:17;7.00;99.90
43987;DHT22;29650;47.378;8.300;2023-02-18T03:41:45;6.80;99.90
43987;DHT22;29650;47.378;8.300;2023-02-18T03:44:13;6.80;99.90
43987;DHT22;29650;47.378;8.300;2023-02-18T03:46:42;6.60;99.90
43987;DHT22;29650;47.378;8.300;2023-02-18T03:49:10;6.40;99.90
43987;DHT22;29650;47.378;8.300;2023-02-18T03:51:37;6.50;99.90
43987;DHT22;29650;47.378;8.300;2023-02-18T03:54:06;6.60;99.90
43987;DHT22;29650;47.378;8.300;2023-02-18T03:56:34;6.60;99.90
43987;DHT22;29650;47.378;8.300;2023-02-18T03:59:01;6.60;99.90
43987;DHT22;29650;47.378;8.300;2023-02-18T04:01:29;6.60;99.90
43987;DHT22;29650;47.378;8.300;2023-02-18T04:03:56;6.70;99.90
43987;DHT22;29650;47.378;8.300;2023-02-18T04:06:23;6.60;99.90
43987;DHT22;29650;47.378;8.300;2023-02-18T04:08:50;6.60;99.90
43987;DHT22;29650;47.378;8.300;2023-02-18T04:11:19;6.60;99.90
43987;DHT22;29650;47.378;8.300;2023-02-18T04:13:46;6.60;99.90
43987;DHT22;29650;47.378;8.300;2023-02-18T04:16:13;6.60;99.90
43987;DHT22;29650;47.378;8.300;2023-02-18T04:18:40;6.60;99.90
43987;DHT22;29650;47.378;8.300;2023-02-18T04:21:08;6.60;99.90
43987;DHT22;29650;47.378;8.300;2023-02-18T04:23:35;6.70;99.90
43987;DHT22;29650;47.378;8.300;2023-02-18T04:26:03;6.60;99.90
43987;DHT22;29650;47.378;8.300;2023-02-18T04:28:34;6.60;99.90
43987;DHT22;29650;47.378;8.300;2023-02-18T04:31:10;6.60;99.90
43987;DHT22;29650;47.378;8.300;2023-02-18T04:33:37;6.50;99.90
43987;DHT22;29650;47.378;8.300;2023-02-18T04:36:05;6.40;99.90
43987;DHT22;29650;47.378;8.300;2023-02-18T04:38:32;6.50;99.90
43987;DHT22;29650;47.378;8.300;2023-02-18T04:41:00;6.50;99.90
43987;DHT22;29650;47.378;8.300;2023-02-18T04:43:30;6.50;99.90
43987;DHT22;29650;47.378;8.300;2023-02-18T04:45:57;6.60;99.90
43987;DHT22;29650;47.378;8.300;2023-02-18T04:48:27;6.60;99.90
43987;DHT22;29650;47.378;8.300;2023-02-18T04:50:55;6.60;99.90
43987;DHT22;29650;47.378;8.300;2023-02-18T04:53:24;6.70;99.90
43987;DHT22;29650;47.378;8.300;2023-02-18T04:55:52;6.70;99.90
43987;DHT22;29650;47.378;8.300;2023-02-18T04:58:22;6.70;99.90
43987;DHT22;29650;47.378;8.300;2023-02-18T05:00:50;6.70;99.90
43987;DHT22;29650;47.378;8.300;2023-02-18T05:03:18;6.70;99.90
43987;DHT22;29650;47.378;8.300;2023-02-18T05:05:45;6.70;99.90
43987;DHT22;29650;47.378;8.300;2023-02-18T05:08:12;6.60;99.90
43987;DHT22;29650;47.378;8.300;2023-02-18T05:10:40;6.60;99.90
43987;DHT22;29650;47.378;8.300;2023-02-18T05:13:08;6.60;99.90
43987;DHT22;29650;47.378;8.300;2023-02-18T05:15:35;6.50;99.90
43987;DHT22;29650;47.378;8.300;2023-02-18T05:18:05;6.40;99.90
43987;DHT22;29650;47.378;8.300;2023-02-18T05:20:35;6.40;99.90
43987;DHT22;29650;47.378;8.300;2023-02-18T05:23:08;6.50;99.90
43987;DHT22;29650;47.378;8.300;2023-02-18T05:25:40;6.70;99.90
43987;DHT22;29650;47.378;8.300;2023-02-18T05:28:20;6.70;99.90
43987;DHT22;29650;47.378;8.300;2023-02-18T05:30:47;6.90;99.90
43987;DHT22;29650;47.378;8.300;2023-02-18T05:33:16;6.90;99.90
43987;DHT22;29650;47.378;8.300;2023-02-18T05:35:44;7.10;99.90
43987;DHT22;29650;47.378;8.300;2023-02-18T05:38:11;7.10;99.90
43987;DHT22;29650;47.378;8.300;2023-02-18T05:40:38;6.80;99.90
43987;DHT22;29650;47.378;8.300;2023-02-18T05:43:08;6.80;99.90
43987;DHT22;29650;47.378;8.300;2023-02-18T05:45:35;6.80;99.90
43987;DHT22;29650;47.378;8.300;2023-02-18T05:48:04;6.70;99.90
43987;DHT22;29650;47.378;8.300;2023-02-18T05:50:40;6.50;99.90
43987;DHT22;29650;47.378;8.300;2023-02-18T05:53:07;6.50;99.90
43987;DHT22;29650;47.378;8.300;2023-02-18T05:55:36;6.40;99.90
43987;DHT22;29650;47.378;8.300;2023-02-18T05:58:13;6.40;99.90
43987;DHT22;29650;47.378;8.300;2023-02-18T06:00:42;6.40;99.90
43987;DHT22;29650;47.378;8.300;2023-02-18T06:03:15;6.40;99.90
43987;DHT22;29650;47.378;8.300;2023-02-18T06:05:44;6.40;99.90
43987;DHT22;29650;47.378;8.300;2023-02-18T06:08:15;6.40;99.90
43987;DHT22;29650;47.378;8.300;2023-02-18T06:10:50;6.40;99.90
43987;DHT22;29650;47.378;8.300;2023-02-18T06:13:18;6.40;99.90
43987;DHT22;29650;47.378;8.300;2023-02-18T06:15:45;6.40;99.90
43987;DHT22;29650;47.378;8.300;2023-02-18T06:18:25;6.50;99.90
43987;DHT22;29650;47.378;8.300;2023-02-18T06:20:54;6.50;99.90
43987;DHT22;29650;47.378;8.300;2023-02-18T06:23:24;6.50;99.90
43987;DHT22;29650;47.378;8.300;2023-02-18T06:25:52;6.50;99.90
43987;DHT22;29650;47.378;8.300;2023-02-18T06:28:20;6.60;99.90
43987;DHT22;29650;47.378;8.300;2023-02-18T06:30:49;6.60;99.90
43987;DHT22;29650;47.378;8.300;2023-02-18T06:33:18;6.60;99.90
43987;DHT22;29650;47.378;8.300;2023-02-18T06:35:54;6.60;99.90
43987;DHT22;29650;47.378;8.300;2023-02-18T06:38:21;6.60;99.90
43987;DHT22;29650;47.378;8.300;2023-02-18T06:40:49;6.60;99.90
43987;DHT22;29650;47.378;8.300;2023-02-18T06:43:17;6.60;99.90
43987;DHT22;29650;47.378;8.300;2023-02-18T06:45:44;6.60;99.90
43987;DHT22;29650;47.378;8.300;2023-02-18T06:48:24;6.70;99.90
43987;DHT22;29650;47.378;8.300;2023-02-18T06:51:08;6.70;99.90
43987;DHT22;29650;47.378;8.300;2023-02-18T06:53:36;6.80;99.90
43987;DHT22;29650;47.378;8.300;2023-02-18T06:56:13;6.80;99.90
43987;DHT22;29650;47.378;8.300;2023-02-18T06:58:42;6.80;99.90
43987;DHT22;29650;47.378;8.300;2023-02-18T07:01:09;6.80;99.90
43987;DHT22;29650;47.378;8.300;2023-02-18T07:03:38;6.80;99.90
43987;DHT22;29650;47.378;8.300;2023-02-18T07:06:07;6.90;99.90
43987;DHT22;29650;47.378;8.300;2023-02-18T07:08:34;7.00;99.90
43987;DHT22;29650;47.378;8.300;2023-02-18T07:11:02;7.10;99.90
43987;DHT22;29650;47.378;8.300;2023-02-18T07:13:29;7.10;99.90
43987;DHT22;29650;47.378;8.300;2023-02-18T07:15:56;7.20;99.90
43987;DHT22;29650;47.378;8.300;2023-02-18T07:18:23;7.30;99.90
43987;DHT22;29650;47.378;8.300;2023-02-18T07:20:54;7.40;99.90
43987;DHT22;29650;47.378;8.300;2023-02-18T07:23:22;7.60;99.90
43987;DHT22;29650;47.378;8.300;2023-02-18T07:25:50;7.40;99.90
43987;DHT22;29650;47.378;8.300;2023-02-18T07:28:24;7.30;99.90
43987;DHT22;29650;47.378;8.300;2023-02-18T07:30:52;7.20;99.90
43987;DHT22;29650;47.378;8.300;2023-02-18T07:33:19;7.20;99.90
43987;DHT22;29650;47.378;8.300;2023-02-18T07:35:46;7.20;99.90
43987;DHT22;29650;47.378;8.300;2023-02-18T07:38:23;7.20;99.90
43987;DHT22;29650;47.378;8.300;2023-02-18T07:40:50;7.30;99.90
43987;DHT22;29650;47.378;8.300;2023-02-18T07:43:18;7.20;99.90
43987;DHT22;29650;47.378;8.300;2023-02-18T07:45:45;7.40;99.90
43987;DHT22;29650;47.378;8.300;2023-02-18T07:48:14;7.40;99.90
43987;DHT22;29650;47.378;8.300;2023-02-18T07:50:42;7.40;99.90
43987;DHT22;29650;47.378;8.300;2023-02-18T07:53:11;7.50;99.90
43987;DHT22;29650;47.378;8.300;2023-02-18T07:55:40;7.60;99.90
43987;DHT22;29650;47.378;8.300;2023-02-18T07:58:25;7.70;99.90
43987;DHT22;29650;47.378;8.300;2023-02-18T08:00:53;7.70;99.90
43987;DHT22;29650;47.378;8.300;2023-02-18T08:03:22;7.80;99.90
43987;DHT22;29650;47.378;8.300;2023-02-18T08:05:49;7.90;99.90
43987;DHT22;29650;47.378;8.300;2023-02-18T08:08:19;8.20;99.90
43987;DHT22;29650;47.378;8.300;2023-02-18T08:10:48;8.00;99.90
43987;DHT22;29650;47.378;8.300;2023-02-18T08:13:16;8.10;99.90
43987;DHT22;29650;47.378;8.300;2023-02-18T08:15:43;8.20;99.90
43987;DHT22;29650;47.378;8.300;2023-02-18T08:18:15;8.30;99.90
43987;DHT22;29650;47.378;8.300;2023-02-18T08:20:42;8.20;99.90
43987;DHT22;29650;47.378;8.300;2023-02-18T08:23:09;8.20;99.90
43987;DHT22;29650;47.378;8.300;2023-02-18T08:25:36;8.30;99.90
43987;DHT22;29650;47.378;8.300;2023-02-18T08:28:05;8.40;99.90
43987;DHT22;29650;47.378;8.300;2023-02-18T08:30:32;8.40;99.90
43987;DHT22;29650;47.378;8.300;2023-02-18T08:32:59;8.50;99.90
43987;DHT22;29650;47.378;8.300;2023-02-18T08:35:26;8.60;99.90
43987;DHT22;29650;47.378;8.300;2023-02-18T08:37:53;8.60;99.90
43987;DHT22;29650;47.378;8.300;2023-02-18T08:40:20;8.70;99.90
43987;DHT22;29650;47.378;8.300;2023-02-18T08:42:47;8.90;99.90
43987;DHT22;29650;47.378;8.300;2023-02-18T08:45:16;9.00;99.90
43987;DHT22;29650;47.378;8.300;2023-02-18T08:47:43;9.20;99.90
43987;DHT22;29650;47.378;8.300;2023-02-18T08:50:10;9.40;99.90
43987;DHT22;29650;47.378;8.300;2023-02-18T08:52:37;9.60;99.90
43987;DHT22;29650;47.378;8.300;2023-02-18T08:55:05;9.70;99.90
43987;DHT22;29650;47.378;8.300;2023-02-18T08:57:32;9.90;99.90
43987;DHT22;29650;47.378;8.300;2023-02-18T08:59:59;9.90;99.90
43987;DHT22;29650;47.378;8.300;2023-02-18T09:02:27;10.10;99.90
43987;DHT22;29650;47.378;8.300;2023-02-18T09:04:54;10.20;99.90
43987;DHT22;29650;47.378;8.300;2023-02-18T09:07:21;10.20;99.90
43987;DHT22;29650;47.378;8.300;2023-02-18T09:09:48;10.40;99.90
43987;DHT22;29650;47.378;8.300;2023-02-18T09:12:15;10.60;99.90
43987;DHT22;29650;47.378;8.300;2023-02-18T09:14:42;10.80;99.90
43987;DHT22;29650;47.378;8.300;2023-02-18T09:17:09;10.90;99.90
43987;DHT22;29650;47.378;8.300;2023-02-18T09:19:37;10.80;99.90
43987;DHT22;29650;47.378;8.300;2023-02-18T09:22:04;11.00;99.90
43987;DHT22;29650;47.378;8.300;2023-02-18T09:24:36;11.10;99.90
43987;DHT22;29650;47.378;8.300;2023-02-18T09:27:03;11.30;99.90
43987;DHT22;29650;47.378;8.300;2023-02-18T09:29:31;11.40;99.90
43987;DHT22;29650;47.378;8.300;2023-02-18T09:31:59;11.50;99.90
43987;DHT22;29650;47.378;8.300;2023-02-18T09:34:26;11.80;99.20
43987;DHT22;29650;47.378;8.300;2023-02-18T09:36:54;11.90;98.40
43987;DHT22;29650;47.378;8.300;2023-02-18T09:39:21;11.80;98.40
43987;DHT22;29650;47.378;8.300;2023-02-18T09:41:50;11.70;97.60
43987;DHT22;29650;47.378;8.300;2023-02-18T09:44:22;11.70;97.20
43987;DHT22;29650;47.378;8.300;2023-02-18T09:46:52;11.70;97.70
43987;DHT22;29650;47.378;8.300;2023-02-18T09:49:24;11.60;97.20
43987;DHT22;29650;47.378;8.300;2023-02-18T09:51:54;11.70;97.10
43987;DHT22;29650;47.378;8.300;2023-02-18T09:54:22;11.80;97.40
43987;DHT22;29650;47.378;8.300;2023-02-18T09:56:49;11.80;96.40
43987;DHT22;29650;47.378;8.300;2023-02-18T09:59:19;12.10;95.90
43987;DHT22;29650;47.378;8.300;2023-02-18T10:01:50;12.10;95.90
43987;DHT22;29650;47.378;8.300;2023-02-18T10:04:21;12.10;95.50
43987;DHT22;29650;47.378;8.300;2023-02-18T10:06:51;12.00;95.40
43987;DHT22;29650;47.378;8.300;2023-02-18T10:09:22;12.00;95.60
43987;DHT22;29650;47.378;8.300;2023-02-18T10:11:55;12.10;95.20
43987;DHT22;29650;47.378;8.300;2023-02-18T10:14:23;12.00;94.80
43987;DHT22;29650;47.378;8.300;2023-02-18T10:16:51;12.00;94.70
43987;DHT22;29650;47.378;8.300;2023-02-18T10:19:27;12.00;94.70
43987;DHT22;29650;47.378;8.300;2023-02-18T10:21:55;12.10;94.90
43987;DHT22;29650;47.378;8.300;2023-02-18T10:24:30;12.10;94.40
43987;DHT22;29650;47.378;8.300;2023-02-18T10:26:58;12.30;94.20
43987;DHT22;29650;47.378;8.300;2023-02-18T10:29:25;12.30;93.80
43987;DHT22;29650;47.378;8.300;2023-02-18T10:31:56;12.50;93.50
43987;DHT22;29650;47.378;8.300;2023-02-18T10:34:35;12.70;94.20
43987;DHT22;29650;47.378;8.300;2023-02-18T10:37:13;12.60;93.10
43987;DHT22;29650;47.378;8.300;2023-02-18T10:39:58;12.60;92.70
43987;DHT22;29650;47.378;8.300;2023-02-18T10:42:34;12.80;92.50
43987;DHT22;29650;47.378;8.300;2023-02-18T10:45:12;13.10;93.40
43987;DHT22;29650;47.378;8.300;2023-02-18T10:47:56;13.10;92.20
43987;DHT22;29650;47.378;8.300;2023-02-18T10:50:31;13.00;91.50
43987;DHT22;29650;47.378;8.300;2023-02-18T10:53:10;13.00;91.70
43987;DHT22;29650;47.378;8.300;2023-02-18T10:55:42;13.10;92.10
43987;DHT22;29650;47.378;8.300;2023-02-18T10:58:33;13.20;91.70
43987;DHT22;29650;47.378;8.300;2023-02-18T11:01:03;13.20;91.40
43987;DHT22;29650;47.378;8.300;2023-02-18T11:03:41;13.30;90.60
43987;DHT22;29650;47.378;8.300;2023-02-18T11:06:18;13.20;90.60
43987;DHT22;29650;47.378;8.300;2023-02-18T11:08:47;13.30;91.20
43987;DHT22;29650;47.378;8.300;2023-02-18T11:11:19;13.20;90.70
43987;DHT22;29650;47.378;8.300;2023-02-18T11:13:52;13.30;90.80
43987;DHT22;29650;47.378;8.300;2023-02-18T11:16:21;13.40;90.90
43987;DHT22;29650;47.378;8.300;2023-02-18T11:18:49;13.30;90.50
43987;DHT22;29650;47.378;8.300;2023-02-18T11:21:23;13.30;90.80
43987;DHT22;29650;47.378;8.300;2023-02-18T11:23:53;13.20;90.50
43987;DHT22;29650;47.378;8.300;2023-02-18T11:26:26;13.30;90.70
43987;DHT22;29650;47.378;8.300;2023-02-18T11:28:58;13.30;90.60
43987;DHT22;29650;47.378;8.300;2023-02-18T11:31:35;13.40;90.40
43987;DHT22;29650;47.378;8.300;2023-02-18T11:34:05;13.40;90.30
43987;DHT22;29650;47.378;8.300;2023-02-18T11:36:37;13.30;90.10
43987;DHT22;29650;47.378;8.300;2023-02-18T11:39:06;13.50;90.90
43987;DHT22;29650;47.378;8.300;2023-02-18T11:41:46;13.70;90.20
43987;DHT22;29650;47.378;8.300;2023-02-18T11:44:20;13.50;89.30
43987;DHT22;29650;47.378;8.300;2023-02-18T11:46:57;13.60;89.30
43987;DHT22;29650;47.378;8.300;2023-02-18T11:49:25;13.60;88.60
43987;DHT22;29650;47.378;8.300;2023-02-18T11:51:52;13.60;89.20
43987;DHT22;29650;47.378;8.300;2023-02-18T11:54:25;13.70;90.20
43987;DHT22;29650;47.378;8.300;2023-02-18T11:56:59;13.80;88.60
43987;DHT22;29650;47.378;8.300;2023-02-18T11:59:29;13.80;88.30
43987;DHT22;29650;47.378;8.300;2023-02-18T12:02:02;13.90;89.00
43987;DHT22;29650;47.378;8.300;2023-02-18T12:04:37;14.00;88.40
43987;DHT22;29650;47.378;8.300;2023-02-18T12:07:14;13.90;87.30
43987;DHT22;29650;47.378;8.300;2023-02-18T12:09:46;13.90;86.60
43987;DHT22;29650;47.378;8.300;2023-02-18T12:12:16;14.00;86.70
43987;DHT22;29650;47.378;8.300;2023-02-18T12:14:44;13.90;86.00
43987;DHT22;29650;47.378;8.300;2023-02-18T12:17:28;14.00;85.50
43987;DHT22;29650;47.378;8.300;2023-02-18T12:20:18;14.30;85.70
43987;DHT22;29650;47.378;8.300;2023-02-18T12:22:51;14.40;84.60
43987;DHT22;29650;47.378;8.300;2023-02-18T12:25:29;14.40;83.60
43987;DHT22;29650;47.378;8.300;2023-02-18T12:28:13;14.50;82.90
43987;DHT22;29650;47.378;8.300;2023-02-18T12:31:12;14.60;82.60
43987;DHT22;29650;47.378;8.300;2023-02-18T12:33:49;14.80;82.40
43987;DHT22;29650;47.378;8.300;2023-02-18T12:36:27;14.90;80.70
43987;DHT22;29650;47.378;8.300;2023-02-18T12:39:05;15.10;80.60
43987;DHT22;29650;47.378;8.300;2023-02-18T12:41:47;14.90;78.30
43987;DHT22;29650;47.378;8.300;2023-02-18T12:44:33;14.90;79.80
43987;DHT22;29650;47.378;8.300;2023-02-18T12:47:19;15.10;80.30
43987;DHT22;29650;47.378;8.300;2023-02-18T12:52:50;15.00;78.20
43987;DHT22;29650;47.378;8.300;2023-02-18T12:55:39;15.00;77.40
43987;DHT22;29650;47.378;8.300;2023-02-18T12:58:17;14.90;76.90
43987;DHT22;29650;47.378;8.300;2023-02-18T13:00:59;14.80;77.80
43987;DHT22;29650;47.378;8.300;2023-02-18T13:03:48;14.90;77.80
43987;DHT22;29650;47.378;8.300;2023-02-18T13:06:35;14.80;77.30
43987;DHT22;29650;47.378;8.300;2023-02-18T13:09:10;15.00;78.30
43987;DHT22;29650;47.378;8.300;2023-02-18T13:11:47;15.10;78.20
43987;DHT22;29650;47.378;8.300;2023-02-18T13:14:21;15.10;75.70
43987;DHT22;29650;47.378;8.300;2023-02-18T13:16:52;15.10;75.70
43987;DHT22;29650;47.378;8.300;2023-02-18T13:19:22;15.20;76.60
43987;DHT22;29650;47.378;8.300;2023-02-18T13:21:52;15.20;75.30
43987;DHT22;29650;47.378;8.300;2023-02-18T13:24:26;15.30;75.00
43987;DHT22;29650;47.378;8.300;2023-02-18T13:27:03;15.20;74.80
43987;DHT22;29650;47.378;8.300;2023-02-18T13:29:34;15.20;74.50
43987;DHT22;29650;47.378;8.300;2023-02-18T13:32:13;15.30;74.50
43987;DHT22;29650;47.378;8.300;2023-02-18T13:34:47;15.40;73.30
43987;DHT22;29650;47.378;8.300;2023-02-18T13:37:21;15.40;73.20
43987;DHT22;29650;47.378;8.300;2023-02-18T13:39:54;15.20;73.40
43987;DHT22;29650;47.378;8.300;2023-02-18T13:42:39;15.40;74.00
43987;DHT22;29650;47.378;8.300;2023-02-18T13:45:31;15.60;72.50
43987;DHT22;29650;47.378;8.300;2023-02-18T13:48:00;15.40;72.60
43987;DHT22;29650;47.378;8.300;2023-02-18T13:50:38;15.50;73.20
43987;DHT22;29650;47.378;8.300;2023-02-18T13:53:22;15.40;71.90
43987;DHT22;29650;47.378;8.300;2023-02-18T13:55:54;15.50;73.00
43987;DHT22;29650;47.378;8.300;2023-02-18T13:58:25;15.40;72.50
43987;DHT22;29650;47.378;8.300;2023-02-18T14:00:55;15.50;72.40
43987;DHT22;29650;47.378;8.300;2023-02-18T14:03:49;15.60;72.20
43987;DHT22;29650;47.378;8.300;2023-02-18T14:06:18;15.60;72.00
43987;DHT22;29650;47.378;8.300;2023-02-18T14:08:45;15.60;72.60
43987;DHT22;29650;47.378;8.300;2023-02-18T14:11:41;15.60;72.10
43987;DHT22;29650;47.378;8.300;2023-02-18T14:14:38;15.60;72.90
43987;DHT22;29650;47.378;8.300;2023-02-18T14:17:30;15.70;74.00
43987;DHT22;29650;47.378;8.300;2023-02-18T14:23:11;15.70;71.20
43987;DHT22;29650;47.378;8.300;2023-02-18T14:25:39;15.70;71.50
43987;DHT22;29650;47.378;8.300;2023-02-18T14:28:40;15.60;70.90
43987;DHT22;29650;47.378;8.300;2023-02-18T14:31:23;15.70;70.90
43987;DHT22;29650;47.378;8.300;2023-02-18T14:36:52;15.60;70.70
43987;DHT22;29650;47.378;8.300;2023-02-18T14:39:33;15.60;71.20
43987;DHT22;29650;47.378;8.300;2023-02-18T14:42:08;15.70;70.90
43987;DHT22;29650;47.378;8.300;2023-02-18T14:44:53;15.60;70.70
43987;DHT22;29650;47.378;8.300;2023-02-18T14:47:28;15.80;70.60
43987;DHT22;29650;47.378;8.300;2023-02-18T14:50:02;15.60;71.20
43987;DHT22;29650;47.378;8.300;2023-02-18T14:52:32;15.70;70.60
43987;DHT22;29650;47.378;8.300;2023-02-18T14:55:03;15.70;70.50
43987;DHT22;29650;47.378;8.300;2023-02-18T14:57:36;15.80;70.80
43987;DHT22;29650;47.378;8.300;2023-02-18T15:00:05;15.80;69.90
43987;DHT22;29650;47.378;8.300;2023-02-18T15:02:39;15.70;70.00
43987;DHT22;29650;47.378;8.300;2023-02-18T15:05:14;15.80;70.20
43987;DHT22;29650;47.378;8.300;2023-02-18T15:07:41;15.70;70.20
43987;DHT22;29650;47.378;8.300;2023-02-18T15:10:14;15.70;69.50
43987;DHT22;29650;47.378;8.300;2023-02-18T15:12:41;15.90;69.70
43987;DHT22;29650;47.378;8.300;2023-02-18T15:15:12;15.90;69.20
43987;DHT22;29650;47.378;8.300;2023-02-18T15:17:44;15.80;69.50
43987;DHT22;29650;47.378;8.300;2023-02-18T15:20:13;15.90;69.50
43987;DHT22;29650;47.378;8.300;2023-02-18T15:22:41;15.90;69.10
43987;DHT22;29650;47.378;8.300;2023-02-18T15:25:11;15.80;69.00
43987;DHT22;29650;47.378;8.300;2023-02-18T15:27:41;15.70;69.80
43987;DHT22;29650;47.378;8.300;2023-02-18T15:30:20;15.60;70.10
43987;DHT22;29650;47.378;8.300;2023-02-18T15:32:50;15.60;70.60
43987;DHT22;29650;47.378;8.300;2023-02-18T15:35:19;15.50;70.40
43987;DHT22;29650;47.378;8.300;2023-02-18T15:37:53;15.50;70.20
43987;DHT22;29650;47.378;8.300;2023-02-18T15:40:21;15.60;70.90
43987;DHT22;29650;47.378;8.300;2023-02-18T15:42:51;15.60;70.60
43987;DHT22;29650;47.378;8.300;2023-02-18T15:45:24;15.60;70.70
43987;DHT22;29650;47.378;8.300;2023-02-18T15:47:56;15.50;71.10
43987;DHT22;29650;47.378;8.300;2023-02-18T15:50:26;15.40;71.20
43987;DHT22;29650;47.378;8.300;2023-02-18T15:52:57;15.50;71.30
43987;DHT22;29650;47.378;8.300;2023-02-18T15:55:30;15.30;71.70
43987;DHT22;29650;47.378;8.300;2023-02-18T15:58:02;15.30;72.20
43987;DHT22;29650;47.378;8.300;2023-02-18T16:00:32;15.20;72.80
43987;DHT22;29650;47.378;8.300;2023-02-18T16:03:03;15.20;72.50
43987;DHT22;29650;47.378;8.300;2023-02-18T16:05:37;15.10;72.60
43987;DHT22;29650;47.378;8.300;2023-02-18T16:08:11;15.00;73.30
43987;DHT22;29650;47.378;8.300;2023-02-18T16:10:44;14.90;73.90
43987;DHT22;29650;47.378;8.300;2023-02-18T16:13:16;14.70;76.10
43987;DHT22;29650;47.378;8.300;2023-02-18T16:15:44;14.40;77.50
43987;DHT22;29650;47.378;8.300;2023-02-18T16:18:28;14.30;77.90
43987;DHT22;29650;47.378;8.300;2023-02-18T16:20:58;14.20;78.20
43987;DHT22;29650;47.378;8.300;2023-02-18T16:23:31;14.10;78.40
43987;DHT22;29650;47.378;8.300;2023-02-18T16:26:18;14.00;78.80
43987;DHT22;29650;47.378;8.300;2023-02-18T16:28:50;13.70;80.30
43987;DHT22;29650;47.378;8.300;2023-02-18T16:31:17;13.60;81.10